createdAt,value
2018-09-03T00:00:17.509Z,98270.27
2018-09-03T00:01:21.849Z,98265.47
2018-09-03T00:02:24.869Z,98263.17
2018-09-03T00:03:27.730Z,98261.57
2018-09-03T00:04:30.583Z,98266.52
2018-09-03T00:05:33.747Z,98256.67
2018-09-03T00:06:36.616Z,98266.52
2018-09-03T00:07:39.485Z,98260.51
2018-09-03T00:08:42.352Z,98262.78
2018-09-03T00:09:49.028Z,98266.28
2018-09-03T00:10:51.897Z,98266.20
2018-09-03T00:11:55.956Z,98267.12
2018-09-03T00:12:58.937Z,98264.23
2018-09-03T00:14:01.818Z,98265.11
2018-09-03T00:15:04.705Z,98257.53
2018-09-03T00:16:07.831Z,98257.16
2018-09-03T00:17:11.111Z,98253.11
2018-09-03T00:18:14.267Z,98253.76
2018-09-03T00:19:17.150Z,98252.16
2018-09-03T00:20:20.055Z,98258.25
2018-09-03T00:21:22.929Z,98265.20
2018-09-03T00:22:25.809Z,98253.61
2018-09-03T00:23:28.708Z,98254.34
2018-09-03T00:24:31.957Z,98251.30
2018-09-03T00:25:34.832Z,98257.38
2018-09-03T00:26:37.716Z,98251.58
2018-09-03T00:27:40.721Z,98252.25
2018-09-03T00:28:44.681Z,98253.82
2018-09-03T00:29:48.153Z,98245.80
2018-09-03T00:30:51.509Z,98241.53
2018-09-03T00:31:59.333Z,98240.37
2018-09-03T00:33:08.077Z,98245.73
2018-09-03T00:34:15.845Z,98242.98
2018-09-03T00:35:24.110Z,98245.88
2018-09-03T00:36:32.391Z,98245.88
2018-09-03T00:37:40.438Z,98244.36
2018-09-03T00:38:48.287Z,98242.27
2018-09-03T00:39:56.068Z,98243.80
2018-09-03T00:41:03.824Z,98242.27
2018-09-03T00:42:11.938Z,98238.48
2018-09-03T00:43:19.622Z,98239.72
2018-09-03T00:44:27.461Z,98239.38
2018-09-03T00:45:35.230Z,98237.78
2018-09-03T00:46:42.993Z,98235.03
2018-09-03T00:47:45.893Z,98230.54
2018-09-03T00:48:50.956Z,98222.06
2018-09-03T00:49:54.701Z,98227.94
2018-09-03T00:50:57.945Z,98224.41
2018-09-03T00:52:00.845Z,98219.83
2018-09-03T00:53:03.887Z,98220.34
2018-09-03T00:54:06.780Z,98212.72
2018-09-03T00:55:10.498Z,98202.60
2018-09-03T00:56:13.371Z,98198.34
2018-09-03T00:57:16.269Z,98189.58
2018-09-03T00:58:19.241Z,98188.57
2018-09-03T00:59:22.103Z,98195.89
2018-09-03T01:00:24.954Z,98197.41
2018-09-03T01:01:28.167Z,98201.01
2018-09-03T01:02:31.077Z,98208.61
2018-09-03T01:03:34.801Z,98212.94
2018-09-03T01:04:37.716Z,98204.69
2018-09-03T01:05:40.619Z,98207.23
2018-09-03T01:06:43.520Z,98215.53
2018-09-03T01:07:46.664Z,98219.32
2018-09-03T01:08:50.554Z,98221.93
2018-09-03T01:09:53.416Z,98221.32
2018-09-03T01:10:56.268Z,98221.69
2018-09-03T01:11:59.139Z,98225.59
2018-09-03T01:13:02.067Z,98222.39
2018-09-03T01:14:05.184Z,98208.76
2018-09-03T01:15:08.294Z,98212.72
2018-09-03T01:16:11.179Z,98210.64
2018-09-03T01:17:14.049Z,98209.69
2018-09-03T01:18:17.490Z,98218.16
2018-09-03T01:19:20.376Z,98212.80
2018-09-03T01:20:24.180Z,98216.81
2018-09-03T01:21:27.541Z,98212.11
2018-09-03T01:22:31.297Z,98218.97
2018-09-03T01:23:34.155Z,98212.09
2018-09-03T01:24:37.066Z,98214.81
2018-09-03T01:25:40.467Z,98213.52
2018-09-03T01:26:43.624Z,98219.10
2018-09-03T01:27:46.476Z,98219.75
2018-09-03T01:28:49.341Z,98224.61
2018-09-03T01:29:52.200Z,98227.80
2018-09-03T01:30:55.321Z,98231.79
2018-09-03T01:31:58.202Z,98232.46
2018-09-03T01:33:01.383Z,98239.66
2018-09-03T01:34:04.262Z,98242.70
2018-09-03T01:35:07.141Z,98242.14
2018-09-03T01:36:11.735Z,98251.25
2018-09-03T01:37:15.567Z,98250.25
2018-09-03T01:38:19.244Z,98253.55
2018-09-03T01:39:22.460Z,98254.31
2018-09-03T01:40:26.044Z,98259.05
2018-09-03T01:41:29.424Z,98262.95
2018-09-03T01:42:32.455Z,98260.89
2018-09-03T01:43:35.324Z,98258.44
2018-09-03T01:44:38.214Z,98252.38
2018-09-03T01:45:41.640Z,98250.86
2018-09-03T01:46:44.530Z,98245.78
2018-09-03T01:47:47.520Z,98249.79
2018-09-03T01:48:50.400Z,98247.60
2018-09-03T01:49:53.281Z,98248.19
2018-09-03T01:50:56.174Z,98244.06
2018-09-03T01:52:00.458Z,98239.95
2018-09-03T01:53:03.299Z,98243.11
2018-09-03T01:54:06.148Z,98239.72
2018-09-03T01:55:09.044Z,98249.79
2018-09-03T01:56:11.936Z,98254.78
2018-09-03T01:57:14.818Z,98259.46
2018-09-03T01:58:17.972Z,98256.57
2018-09-03T01:59:20.816Z,98254.27
2018-09-03T02:00:23.724Z,98246.95
2018-09-03T02:01:26.594Z,98238.92
2018-09-03T02:02:29.446Z,98246.75
2018-09-03T02:03:32.439Z,98246.08
2018-09-03T02:04:35.583Z,98252.73
2018-09-03T02:05:38.812Z,98250.86
2018-09-03T02:06:43.132Z,98253.30
2018-09-03T02:07:46.034Z,98248.62
2018-09-03T02:08:48.903Z,98244.06
2018-09-03T02:09:51.755Z,98254.70
2018-09-03T02:10:55.826Z,98251.36
2018-09-03T02:11:58.774Z,98250.06
2018-09-03T02:13:02.417Z,98247.17
2018-09-03T02:14:05.935Z,98237.03
2018-09-03T02:15:08.828Z,98230.75
2018-09-03T02:16:12.866Z,98228.15
2018-09-03T02:17:16.491Z,98220.63
2018-09-03T02:18:19.377Z,98233.77
2018-09-03T02:19:22.227Z,98230.66
2018-09-03T02:20:25.091Z,98231.55
2018-09-03T02:21:28.009Z,98227.34
2018-09-03T02:22:31.903Z,98230.23
2018-09-03T02:23:35.051Z,98229.09
2018-09-03T02:24:38.281Z,98221.34
2018-09-03T02:25:41.183Z,98220.41
2018-09-03T02:26:44.081Z,98226.05
2018-09-03T02:27:46.955Z,98223.67
2018-09-03T02:28:49.841Z,98224.45
2018-09-03T02:29:52.989Z,98228.86
2018-09-03T02:30:55.886Z,98223.06
2018-09-03T02:31:58.790Z,98217.12
2018-09-03T02:33:01.734Z,98224.55
2018-09-03T02:34:05.302Z,98221.47
2018-09-03T02:35:09.195Z,98218.02
2018-09-03T02:36:12.356Z,98215.91
2018-09-03T02:37:15.210Z,98210.85
2018-09-03T02:38:18.065Z,98212.08
2018-09-03T02:39:20.973Z,98203.24
2018-09-03T02:40:23.832Z,98205.99
2018-09-03T02:41:26.666Z,98203.05
2018-09-03T02:42:29.880Z,98205.20
2018-09-03T02:43:32.751Z,98205.20
2018-09-03T02:44:35.700Z,98194.06
2018-09-03T02:45:39.295Z,98193.06
2018-09-03T02:46:42.178Z,98190.16
2018-09-03T02:47:45.078Z,98190.39
2018-09-03T02:48:48.278Z,98182.19
2018-09-03T02:49:51.161Z,98185.52
2018-09-03T02:50:54.057Z,98184.74
2018-09-03T02:51:56.906Z,98188.05
2018-09-03T02:52:59.870Z,98189.43
2018-09-03T02:54:02.818Z,98196.67
2018-09-03T02:55:05.962Z,98199.27
2018-09-03T02:56:08.830Z,98193.13
2018-09-03T02:57:11.779Z,98195.66
2018-09-03T02:58:14.679Z,98186.40
2018-09-03T02:59:17.529Z,98190.75
2018-09-03T03:00:22.497Z,98194.22
2018-09-03T03:01:25.678Z,98186.45
2018-09-03T03:02:28.617Z,98184.74
2018-09-03T03:03:31.557Z,98191.54
2018-09-03T03:04:34.986Z,98186.41
2018-09-03T03:05:38.798Z,98192.31
2018-09-03T03:06:42.523Z,98187.50
2018-09-03T03:07:45.707Z,98187.28
2018-09-03T03:08:52.480Z,98185.13
2018-09-03T03:09:55.779Z,98186.58
2018-09-03T03:10:58.644Z,98193.67
2018-09-03T03:12:01.543Z,98192.30
2018-09-03T03:13:05.316Z,98193.67
2018-09-03T03:14:08.692Z,98192.36
2018-09-03T03:15:11.599Z,98183.67
2018-09-03T03:16:14.542Z,98189.47
2018-09-03T03:17:17.450Z,98185.28
2018-09-03T03:18:22.523Z,98179.89
2018-09-03T03:19:25.390Z,98181.54
2018-09-03T03:20:30.591Z,98187.27
2018-09-03T03:21:33.689Z,98185.10
2018-09-03T03:22:36.912Z,98180.75
2018-09-03T03:23:39.815Z,98177.00
2018-09-03T03:24:42.690Z,98178.23
2018-09-03T03:25:45.566Z,98173.59
2018-09-03T03:26:48.760Z,98164.41
2018-09-03T03:27:51.715Z,98167.88
2018-09-03T03:28:54.605Z,98169.98
2018-09-03T03:29:57.595Z,98160.36
2018-09-03T03:31:00.523Z,98162.89
2018-09-03T03:32:03.423Z,98163.67
2018-09-03T03:33:06.541Z,98155.05
2018-09-03T03:34:11.080Z,98163.11
2018-09-03T03:35:15.655Z,98167.09
2018-09-03T03:36:18.521Z,98165.49
2018-09-03T03:37:21.360Z,98165.34
2018-09-03T03:38:24.221Z,98159.92
2018-09-03T03:39:27.408Z,98158.18
2018-09-03T03:40:30.267Z,98158.96
2018-09-03T03:41:33.131Z,98152.23
2018-09-03T03:42:36.011Z,98145.17
2018-09-03T03:43:39.179Z,98154.80
2018-09-03T03:44:42.041Z,98150.45
2018-09-03T03:45:45.237Z,98154.20
2018-09-03T03:46:48.082Z,98154.42
2018-09-03T03:47:56.355Z,98155.58
2018-09-03T03:49:03.266Z,98149.63
2018-09-03T03:50:07.181Z,98154.05
2018-09-03T03:51:10.013Z,98153.48
2018-09-03T03:52:13.178Z,98149.44
2018-09-03T03:53:16.089Z,98147.51
2018-09-03T03:54:19.082Z,98145.65
2018-09-03T03:55:21.988Z,98141.86
2018-09-03T03:56:24.965Z,98145.27
2018-09-03T03:57:28.074Z,98139.70
2018-09-03T03:58:32.059Z,98145.27
2018-09-03T03:59:34.919Z,98138.77
2018-09-03T04:00:37.797Z,98137.69
2018-09-03T04:01:40.764Z,98139.19
2018-09-03T04:02:43.655Z,98137.66
2018-09-03T04:03:47.185Z,98133.92
2018-09-03T04:04:50.892Z,98136.01
2018-09-03T04:05:53.728Z,98139.06
2018-09-03T04:06:57.204Z,98141.95
2018-09-03T04:08:00.085Z,98140.80
2018-09-03T04:09:03.015Z,98140.99
2018-09-03T04:10:06.173Z,98138.20
2018-09-03T04:11:09.051Z,98141.59
2018-09-03T04:12:11.940Z,98133.78
2018-09-03T04:13:14.806Z,98140.66
2018-09-03T04:14:18.712Z,98137.17
2018-09-03T04:15:21.622Z,98129.23
2018-09-03T04:16:25.040Z,98137.97
2018-09-03T04:17:29.495Z,98132.94
2018-09-03T04:18:32.381Z,98136.70
2018-09-03T04:19:35.250Z,98136.37
2018-09-03T04:20:38.117Z,98138.48
2018-09-03T04:21:41.007Z,98146.72
2018-09-03T04:22:44.242Z,98137.33
2018-09-03T04:23:47.071Z,98139.22
2018-09-03T04:24:49.982Z,98140.67
2018-09-03T04:25:53.120Z,98141.04
2018-09-03T04:26:55.977Z,98133.36
2018-09-03T04:27:58.937Z,98138.86
2018-09-03T04:29:02.350Z,98139.67
2018-09-03T04:30:05.252Z,98136.77
2018-09-03T04:31:08.127Z,98137.78
2018-09-03T04:32:11.804Z,98139.08
2018-09-03T04:33:14.805Z,98142.98
2018-09-03T04:34:17.987Z,98143.56
2018-09-03T04:35:20.901Z,98139.00
2018-09-03T04:36:23.831Z,98136.32
2018-09-03T04:37:26.707Z,98128.08
2018-09-03T04:38:29.578Z,98133.05
2018-09-03T04:39:32.455Z,98138.70
2018-09-03T04:40:36.302Z,98142.09
2018-09-03T04:41:39.293Z,98136.32
2018-09-03T04:42:48.807Z,98134.87
2018-09-03T04:43:51.713Z,98136.39
2018-09-03T04:44:55.165Z,98139.55
2018-09-03T04:45:58.034Z,98133.91
2018-09-03T04:47:01.811Z,98136.66
2018-09-03T04:48:04.757Z,98131.38
2018-09-03T04:49:07.746Z,98131.02
2018-09-03T04:50:10.665Z,98128.27
2018-09-03T04:51:13.610Z,98124.52
2018-09-03T04:52:16.495Z,98122.91
2018-09-03T04:53:19.714Z,98122.36
2018-09-03T04:54:23.295Z,98120.98
2018-09-03T04:55:26.797Z,98123.66
2018-09-03T04:56:29.908Z,98119.53
2018-09-03T04:57:34.088Z,98117.00
2018-09-03T04:58:36.987Z,98116.78
2018-09-03T04:59:40.712Z,98114.26
2018-09-03T05:00:43.658Z,98120.91
2018-09-03T05:01:46.540Z,98115.04
2018-09-03T05:02:49.478Z,98115.90
2018-09-03T05:03:54.058Z,98114.89
2018-09-03T05:04:57.845Z,98117.34
2018-09-03T05:06:01.333Z,98119.67
2018-09-03T05:07:04.204Z,98118.30
2018-09-03T05:08:07.611Z,98119.31
2018-09-03T05:09:10.488Z,98127.78
2018-09-03T05:10:14.342Z,98128.56
2018-09-03T05:11:17.326Z,98130.73
2018-09-03T05:12:20.482Z,98131.66
2018-09-03T05:13:24.408Z,98129.66
2018-09-03T05:14:28.159Z,98129.72
2018-09-03T05:15:32.024Z,98135.36
2018-09-03T05:16:35.904Z,98134.57
2018-09-03T05:17:39.361Z,98135.95
2018-09-03T05:18:42.502Z,98136.73
2018-09-03T05:19:45.405Z,98137.81
2018-09-03T05:20:48.406Z,98138.68
2018-09-03T05:21:51.317Z,98140.72
2018-09-03T05:22:54.236Z,98146.28
2018-09-03T05:23:57.149Z,98140.84
2018-09-03T05:25:00.300Z,98144.97
2018-09-03T05:26:03.337Z,98137.22
2018-09-03T05:27:06.441Z,98136.38
2018-09-03T05:28:09.315Z,98131.23
2018-09-03T05:29:12.250Z,98127.19
2018-09-03T05:30:15.237Z,98131.31
2018-09-03T05:33:33.867Z,98122.65
2018-09-03T05:34:38.099Z,98122.57
2018-09-03T05:35:41.013Z,98121.09
2018-09-03T05:36:43.915Z,98119.94
2018-09-03T05:37:46.802Z,98119.86
2018-09-03T05:38:50.045Z,98119.31
2018-09-03T05:39:53.182Z,98117.70
2018-09-03T05:40:56.083Z,98121.76
2018-09-03T05:41:59.085Z,98114.18
2018-09-03T05:43:02.122Z,98112.44
2018-09-03T05:44:05.175Z,98117.34
2018-09-03T05:45:08.535Z,98118.37
2018-09-03T05:46:11.440Z,98121.78
2018-09-03T05:47:14.517Z,98121.98
2018-09-03T05:48:17.409Z,98130.43
2018-09-03T05:49:20.274Z,98126.13
2018-09-03T05:50:26.187Z,98128.51
2018-09-03T05:51:29.471Z,98131.75
2018-09-03T05:52:32.479Z,98128.05
2018-09-03T05:53:35.364Z,98125.77
2018-09-03T05:54:38.327Z,98120.07
2018-09-03T05:55:42.051Z,98117.60
2018-09-03T05:56:44.893Z,98120.38
2018-09-03T05:57:48.276Z,98119.67
2018-09-03T05:58:51.287Z,98120.10
2018-09-03T05:59:54.181Z,98116.07
2018-09-03T06:00:58.703Z,98116.13
2018-09-03T06:02:01.646Z,98114.19
2018-09-03T06:03:05.406Z,98114.34
2018-09-03T06:04:08.859Z,98113.03
2018-09-03T06:05:12.103Z,98126.34
2018-09-03T06:06:15.563Z,98125.33
2018-09-03T06:07:18.494Z,98123.37
2018-09-03T06:08:21.516Z,98124.96
2018-09-03T06:09:24.380Z,98126.63
2018-09-03T06:10:27.721Z,98128.42
2018-09-03T06:11:30.603Z,98126.63
2018-09-03T06:12:33.640Z,98124.95
2018-09-03T06:13:36.555Z,98129.07
2018-09-03T06:14:39.492Z,98125.37
2018-09-03T06:15:43.354Z,98125.06
2018-09-03T06:16:47.553Z,98124.86
2018-09-03T06:17:50.619Z,98124.41
2018-09-03T06:18:54.703Z,98123.58
2018-09-03T06:19:59.267Z,98122.34
2018-09-03T06:21:02.119Z,98116.77
2018-09-03T06:22:04.992Z,98123.42
2018-09-03T06:23:11.886Z,98124.52
2018-09-03T06:24:14.755Z,98119.47
2018-09-03T06:25:18.613Z,98123.73
2018-09-03T06:26:23.349Z,98127.08
2018-09-03T06:27:26.343Z,98125.26
2018-09-03T06:28:29.349Z,98129.31
2018-09-03T06:29:34.381Z,98131.16
2018-09-03T06:30:38.462Z,98131.33
2018-09-03T06:31:42.656Z,98128.48
2018-09-03T06:32:46.203Z,98129.51
2018-09-03T06:33:49.156Z,98128.99
2018-09-03T06:34:52.654Z,98126.41
2018-09-03T06:35:56.301Z,98134.88
2018-09-03T06:36:59.249Z,98128.30
2018-09-03T06:38:03.114Z,98130.27
2018-09-03T06:39:07.125Z,98130.20
2018-09-03T06:40:10.018Z,98129.94
2018-09-03T06:41:13.839Z,98117.86
2018-09-03T06:42:17.111Z,98125.41
2018-09-03T06:43:20.058Z,98122.28
2018-09-03T06:44:23.096Z,98126.03
2018-09-03T06:45:26.011Z,98127.33
2018-09-03T06:46:29.425Z,98121.31
2018-09-03T06:47:32.371Z,98120.09
2018-09-03T06:48:35.532Z,98124.52
2018-09-03T06:49:38.676Z,98122.98
2018-09-03T06:50:41.716Z,98122.46
2018-09-03T06:51:45.120Z,98123.76
2018-09-03T06:52:48.960Z,98125.58
2018-09-03T06:53:52.253Z,98121.67
2018-09-03T06:54:56.492Z,98125.50
2018-09-03T06:55:59.641Z,98125.72
2018-09-03T06:57:02.541Z,98120.09
2018-09-03T06:58:05.716Z,98118.56
2018-09-03T06:59:08.690Z,98121.75
2018-09-03T07:00:13.640Z,98119.38
2018-09-03T07:01:17.579Z,98124.18
2018-09-03T07:02:20.640Z,98127.34
2018-09-03T07:03:23.504Z,98120.17
2018-09-03T07:04:28.047Z,98126.11
2018-09-03T07:05:32.639Z,98120.91
2018-09-03T07:06:35.665Z,98127.48
2018-09-03T07:07:39.159Z,98129.53
2018-09-03T07:08:42.287Z,98118.56
2018-09-03T07:09:47.296Z,98123.20
2018-09-03T07:10:50.151Z,98121.02
2018-09-03T07:11:54.249Z,98116.33
2018-09-03T07:12:57.925Z,98116.41
2018-09-03T07:14:02.104Z,98110.92
2018-09-03T07:15:05.032Z,98118.09
2018-09-03T07:16:07.918Z,98108.76
2018-09-03T07:17:13.916Z,98104.78
2018-09-03T07:18:19.715Z,98109.61
2018-09-03T07:19:22.593Z,98114.78
2018-09-03T07:20:27.311Z,98106.80
2018-09-03T07:21:33.203Z,98105.04
2018-09-03T07:22:36.093Z,98106.34
2018-09-03T07:23:40.661Z,98107.78
2018-09-03T07:24:44.260Z,98101.59
2018-09-03T07:25:48.606Z,98095.95
2018-09-03T07:26:53.670Z,98093.56
2018-09-03T07:27:56.538Z,98088.59
2018-09-03T07:28:59.432Z,98090.20
2018-09-03T07:30:02.360Z,98092.55
2018-09-03T07:31:06.820Z,98091.02
2018-09-03T07:32:11.129Z,98092.02
2018-09-03T07:33:15.440Z,98097.52
2018-09-03T07:34:19.491Z,98095.77
2018-09-03T07:35:23.656Z,98093.27
2018-09-03T07:36:26.524Z,98099.06
2018-09-03T07:37:29.423Z,98090.42
2018-09-03T07:38:32.622Z,98095.77
2018-09-03T07:39:36.151Z,98089.88
2018-09-03T07:40:39.205Z,98094.02
2018-09-03T07:41:43.251Z,98098.28
2018-09-03T07:42:49.258Z,98099.62
2018-09-03T07:43:52.815Z,98098.47
2018-09-03T07:44:56.829Z,98104.19
2018-09-03T07:45:59.871Z,98103.04
2018-09-03T07:47:03.389Z,98104.81
2018-09-03T07:48:10.395Z,98100.35
2018-09-03T07:49:17.913Z,98098.61
2018-09-03T07:50:20.778Z,98104.88
2018-09-03T07:51:23.970Z,98100.12
2018-09-03T07:52:26.863Z,98098.76
2018-09-03T07:53:30.700Z,98098.25
2018-09-03T07:54:34.292Z,98100.61
2018-09-03T07:55:37.178Z,98102.41
2018-09-03T07:56:40.482Z,98100.12
2018-09-03T07:57:43.910Z,98106.29
2018-09-03T07:58:46.881Z,98107.48
2018-09-03T07:59:49.752Z,98107.38
2018-09-03T08:00:54.717Z,98107.45
2018-09-03T08:01:58.022Z,98111.92
2018-09-03T08:03:01.596Z,98111.67
2018-09-03T08:04:05.666Z,98108.38
2018-09-03T08:05:09.332Z,98115.35
2018-09-03T08:06:14.080Z,98112.75
2018-09-03T08:07:17.050Z,98113.17
2018-09-03T08:08:20.032Z,98112.33
2018-09-03T08:09:23.706Z,98110.06
2018-09-03T08:10:27.036Z,98110.17
2018-09-03T08:11:31.673Z,98108.32
2018-09-03T08:12:34.985Z,98109.31
2018-09-03T08:13:41.236Z,98113.15
2018-09-03T08:14:44.885Z,98108.72
2018-09-03T08:15:49.038Z,98108.22
2018-09-03T08:16:53.752Z,98104.70
2018-09-03T08:17:56.729Z,98113.91
2018-09-03T08:18:59.746Z,98116.56
2018-09-03T08:20:02.836Z,98115.77
2018-09-03T08:21:07.101Z,98113.57
2018-09-03T08:22:10.631Z,98112.75
2018-09-03T08:23:13.874Z,98109.32
2018-09-03T08:24:17.358Z,98105.55
2018-09-03T08:25:20.541Z,98105.41
2018-09-03T08:26:25.577Z,98104.86
2018-09-03T08:27:28.488Z,98108.03
2018-09-03T08:28:31.377Z,98103.16
2018-09-03T08:29:36.699Z,98102.23
2018-09-03T08:30:40.277Z,98101.13
2018-09-03T08:31:44.213Z,98095.01
2018-09-03T08:32:48.301Z,98091.03
2018-09-03T08:33:54.198Z,98091.95
2018-09-03T08:34:57.711Z,98089.63
2018-09-03T08:36:00.866Z,98097.20
2018-09-03T08:37:03.973Z,98094.41
2018-09-03T08:38:06.881Z,98096.44
2018-09-03T08:39:12.257Z,98098.61
2018-09-03T08:40:15.241Z,98101.23
2018-09-03T08:41:22.216Z,98105.20
2018-09-03T08:42:25.724Z,98103.14
2018-09-03T08:43:28.668Z,98107.47
2018-09-03T08:44:31.560Z,98105.16
2018-09-03T08:45:35.015Z,98102.58
2018-09-03T08:46:38.793Z,98106.31
2018-09-03T08:47:42.503Z,98100.50
2018-09-03T08:48:45.716Z,98098.95
2018-09-03T08:49:49.542Z,98097.57
2018-09-03T08:50:53.775Z,98100.23
2018-09-03T08:51:59.751Z,98098.42
2018-09-03T08:53:04.828Z,98094.84
2018-09-03T08:54:08.541Z,98103.20
2018-09-03T08:55:13.445Z,98101.58
2018-09-03T08:56:16.514Z,98105.09
2018-09-03T08:57:19.600Z,98105.00
2018-09-03T08:58:23.329Z,98109.34
2018-09-03T08:59:32.488Z,98108.09
2018-09-03T09:00:38.639Z,98106.95
2018-09-03T09:01:46.576Z,98107.30
2018-09-03T09:02:49.604Z,98106.70
2018-09-03T09:03:53.570Z,98100.54
2018-09-03T09:04:58.605Z,98094.65
2018-09-03T09:06:01.567Z,98090.64
2018-09-03T09:07:07.837Z,98085.31
2018-09-03T09:08:12.685Z,98084.52
2018-09-03T09:09:16.061Z,98087.40
2018-09-03T09:10:24.049Z,98089.72
2018-09-03T09:11:27.182Z,98093.13
2018-09-03T09:12:31.317Z,98101.35
2018-09-03T09:13:36.075Z,98095.62
2018-09-03T09:14:39.709Z,98095.66
2018-09-03T09:15:42.824Z,98087.83
2018-09-03T09:16:45.763Z,98092.29
2018-09-03T09:17:49.514Z,98091.69
2018-09-03T09:18:52.420Z,98092.53
2018-09-03T09:19:55.269Z,98089.80
2018-09-03T09:20:59.334Z,98093.52
2018-09-03T09:22:02.575Z,98077.14
2018-09-03T09:23:05.747Z,98082.05
2018-09-03T09:24:08.675Z,98085.70
2018-09-03T09:25:11.790Z,98088.77
2018-09-03T09:26:15.796Z,98088.47
2018-09-03T09:27:20.062Z,98080.55
2018-09-03T09:28:23.625Z,98077.48
2018-09-03T09:29:29.106Z,98087.73
2018-09-03T09:30:35.042Z,98081.98
2018-09-03T09:31:38.789Z,98088.05
2018-09-03T09:32:41.753Z,98084.19
2018-09-03T09:33:45.279Z,98083.91
2018-09-03T09:34:49.570Z,98080.55
2018-09-03T09:35:53.667Z,98085.28
2018-09-03T09:36:56.647Z,98084.08
2018-09-03T09:37:59.818Z,98078.91
2018-09-03T09:39:04.924Z,98073.66
2018-09-03T09:40:09.959Z,98073.03
2018-09-03T09:41:13.906Z,98076.14
2018-09-03T09:42:18.593Z,98076.00
2018-09-03T09:43:21.736Z,98072.32
2018-09-03T09:44:25.770Z,98070.34
2018-09-03T09:45:35.006Z,98066.20
2018-09-03T09:46:37.881Z,98065.99
2018-09-03T09:47:41.495Z,98063.48
2018-09-03T09:48:44.460Z,98073.56
2018-09-03T09:49:47.594Z,98077.35
2018-09-03T09:50:50.486Z,98077.84
2018-09-03T09:51:56.536Z,98080.48
2018-09-03T09:52:59.460Z,98075.36
2018-09-03T09:54:03.104Z,98074.28
2018-09-03T09:55:08.623Z,98075.53
2018-09-03T09:56:12.367Z,98070.34
2018-09-03T09:57:16.210Z,98066.09
2018-09-03T09:58:19.539Z,98062.73
2018-09-03T09:59:22.448Z,98060.16
2018-09-03T10:00:30.324Z,98057.61
2018-09-03T10:01:36.777Z,98054.48
2018-09-03T10:02:40.890Z,98057.85
2018-09-03T10:03:47.094Z,98048.61
2018-09-03T10:04:50.334Z,98045.71
2018-09-03T10:05:54.495Z,98054.77
2018-09-03T10:06:57.849Z,98054.52
2018-09-03T10:08:00.957Z,98051.27
2018-09-03T10:09:03.966Z,98054.98
2018-09-03T10:10:12.636Z,98061.42
2018-09-03T10:11:18.370Z,98060.93
2018-09-03T10:12:25.171Z,98060.19
2018-09-03T10:13:29.281Z,98059.55
2018-09-03T10:14:32.446Z,98056.22
2018-09-03T10:15:35.383Z,98055.25
2018-09-03T10:16:40.317Z,98063.00
2018-09-03T10:17:43.224Z,98067.56
2018-09-03T10:18:46.104Z,98062.61
2018-09-03T10:19:48.988Z,98067.30
2018-09-03T10:20:51.859Z,98063.36
2018-09-03T10:21:55.340Z,98062.58
2018-09-03T10:22:58.490Z,98068.88
2018-09-03T10:24:02.499Z,98064.56
2018-09-03T10:25:05.578Z,98060.84
2018-09-03T10:26:08.756Z,98066.55
2018-09-03T10:27:12.798Z,98058.44
2018-09-03T10:28:15.701Z,98057.69
2018-09-03T10:29:19.030Z,98060.84
2018-09-03T10:30:21.893Z,98065.41
2018-09-03T10:32:41.113Z,98059.04
2018-09-03T10:33:44.990Z,98061.77
2018-09-03T10:34:47.857Z,98059.58
2018-09-03T10:35:51.073Z,98062.91
2018-09-03T10:36:55.283Z,98053.42
2018-09-03T10:37:58.226Z,98055.47
2018-09-03T10:39:02.271Z,98054.69
2018-09-03T10:40:07.396Z,98047.99
2018-09-03T10:41:12.298Z,98051.17
2018-09-03T10:42:21.168Z,98052.38
2018-09-03T10:43:26.557Z,98046.48
2018-09-03T10:44:31.787Z,98042.52
2018-09-03T10:45:35.399Z,98046.06
2018-09-03T10:46:44.482Z,98044.14
2018-09-03T10:47:48.744Z,98046.98
2018-09-03T10:48:54.774Z,98041.48
2018-09-03T10:49:57.681Z,98045.81
2018-09-03T10:51:03.594Z,98041.64
2018-09-03T10:52:06.783Z,98039.82
2018-09-03T10:53:11.328Z,98038.44
2018-09-03T10:54:14.995Z,98034.30
2018-09-03T10:55:18.451Z,98037.23
2018-09-03T10:56:23.311Z,98027.98
2018-09-03T10:57:26.499Z,98029.22
2018-09-03T10:58:33.270Z,98025.09
2018-09-03T10:59:37.423Z,98027.72
2018-09-03T11:00:40.841Z,98024.02
2018-09-03T11:01:43.752Z,98026.38
2018-09-03T11:02:46.641Z,98028.96
2018-09-03T11:03:49.641Z,98030.32
2018-09-03T11:04:53.787Z,98028.11
2018-09-03T11:06:00.119Z,98027.91
2018-09-03T11:07:04.303Z,98023.18
2018-09-03T11:08:07.192Z,98028.55
2018-09-03T11:09:11.346Z,98025.73
2018-09-03T11:10:16.086Z,98025.39
2018-09-03T11:11:20.190Z,98022.69
2018-09-03T11:12:25.671Z,98024.29
2018-09-03T11:13:29.737Z,98021.72
2018-09-03T11:14:32.642Z,98019.32
2018-09-03T11:15:39.132Z,98014.98
2018-09-03T11:16:42.814Z,98018.19
2018-09-03T11:17:46.689Z,98017.19
2018-09-03T11:18:49.579Z,98018.20
2018-09-03T11:19:59.509Z,98019.56
2018-09-03T11:21:04.229Z,98025.08
2018-09-03T11:22:08.914Z,98021.94
2018-09-03T11:23:12.722Z,98027.27
2018-09-03T11:24:15.839Z,98024.88
2018-09-03T11:25:20.049Z,98027.86
2018-09-03T11:26:25.039Z,98025.69
2018-09-03T11:27:28.062Z,98026.09
2018-09-03T11:28:31.782Z,98019.34
2018-09-03T11:29:37.993Z,98021.14
2018-09-03T11:30:42.644Z,98020.34
2018-09-03T11:31:45.522Z,98023.47
2018-09-03T11:32:53.922Z,98020.11
2018-09-03T11:33:57.633Z,98026.60
2018-09-03T11:35:05.563Z,98026.41
2018-09-03T11:36:11.253Z,98025.20
2018-09-03T11:37:16.124Z,98023.84
2018-09-03T11:38:21.370Z,98024.84
2018-09-03T11:39:24.519Z,98024.03
2018-09-03T11:40:27.869Z,98019.47
2018-09-03T11:41:31.104Z,98020.65
2018-09-03T11:42:33.966Z,98026.95
2018-09-03T11:43:37.682Z,98016.55
2018-09-03T11:44:40.545Z,98018.94
2018-09-03T11:45:44.453Z,98020.30
2018-09-03T11:46:47.371Z,98014.95
2018-09-03T11:47:50.998Z,98016.11
2018-09-03T11:48:54.192Z,98021.42
2018-09-03T11:49:58.042Z,98017.84
2018-09-03T11:51:01.717Z,98015.08
2018-09-03T11:52:06.544Z,98018.47
2018-09-03T11:53:09.584Z,98013.30
2018-09-03T11:54:12.477Z,98017.44
2018-09-03T11:55:16.522Z,98018.48
2018-09-03T11:56:19.377Z,98017.09
2018-09-03T11:57:22.675Z,98022.05
2018-09-03T11:58:30.656Z,98023.02
2018-09-03T11:59:33.770Z,98020.06
2018-09-03T12:00:37.735Z,98019.30
2018-09-03T12:01:41.700Z,98015.17
2018-09-03T12:02:44.587Z,98015.16
2018-09-03T12:03:47.889Z,98014.93
2018-09-03T12:04:51.689Z,98014.91
2018-09-03T12:05:54.946Z,98010.56
2018-09-03T12:06:58.234Z,98013.69
2018-09-03T12:08:01.866Z,98010.20
2018-09-03T12:09:06.125Z,98016.92
2018-09-03T12:10:09.609Z,98012.19
2018-09-03T12:11:14.043Z,98012.19
2018-09-03T12:12:16.965Z,98009.22
2018-09-03T12:13:19.838Z,98014.89
2018-09-03T12:14:32.170Z,98013.88
2018-09-03T12:15:44.642Z,98008.72
2018-09-03T12:16:47.869Z,98017.84
2018-09-03T12:17:52.841Z,98014.27
2018-09-03T12:18:57.948Z,98013.67
2018-09-03T12:20:02.498Z,98015.42
2018-09-03T12:21:06.693Z,98012.63
2018-09-03T12:22:10.087Z,98010.91
2018-09-03T12:23:13.954Z,98012.30
2018-09-03T12:24:18.107Z,98010.15
2018-09-03T12:25:22.299Z,98011.55
2018-09-03T12:27:43.534Z,98011.32
2018-09-03T12:28:46.646Z,98015.67
2018-09-03T12:29:49.788Z,98016.06
2018-09-03T12:30:52.639Z,98011.53
2018-09-03T12:31:57.188Z,98010.10
2018-09-03T12:33:02.919Z,98013.08